Prince Basel — H3VK — position and weather

sailwx.info

Track history (hours):
 
Tides and Currents Weather Stations Pressure Air Temp Water Temp Dewpoint Dewpoint Depression Visibility Wind Speed Wind Dir Waves Ship Positions

Prince Basel

Last reported at 2017-Oct-12 16:47 UTC. Time now 2017-Oct-20 18:28 UTC.
Position N 26°54' W 014°33'.
Warning: this ship's position is 8 days out of date.

Length 101 m; draft 6.8 m.

Type: Cargo ship. MMSI: 374421000.

Date/timePositionNaut miles runAvg speedWind from/ knotsBaromVisibWave heightAir tempDewpointWater temp
2017-Oct-12 16:47N 26°54' W 014°33'311.5
2017-Oct-12 16:31N 26°56' W 014°30'611.4
2017-Oct-12 16:01N 27°01' W 014°26'611.3
2017-Oct-12 15:30N 27°05' W 014°22'611.1
2017-Oct-12 15:01N 27°09' W 014°18'611.2
2017-Oct-12 14:30N 27°14' W 014°14'611.2
2017-Oct-12 14:01N 27°18' W 014°10'611.1
2017-Oct-12 13:30N 27°22' W 014°06'611.1
2017-Oct-12 13:00N 27°27' W 014°02'611.2
2017-Oct-12 12:30N 27°31' W 013°59'611.3
2017-Oct-12 12:00N 27°36' W 013°55'611.2
2017-Oct-12 11:30N 27°41' W 013°52'611.3
2017-Oct-12 11:00N 27°46' W 013°49'611.4
2017-Oct-12 10:30N 27°50' W 013°45'611.4
2017-Oct-12 10:00N 27°55' W 013°41'611.4
2017-Oct-12 09:30N 27°59' W 013°37'611.4
2017-Oct-12 09:00N 28°04' W 013°33'611.4
2017-Oct-12 08:30N 28°08' W 013°29'611.4
2017-Oct-12 08:00N 28°13' W 013°25'611.2
2017-Oct-12 07:30N 28°17' W 013°21'611.0
2017-Oct-12 07:00N 28°22' W 013°18'511.1
2017-Oct-12 06:30N 28°26' W 013°14'611.3
2017-Oct-12 06:00N 28°31' W 013°11'611.2
2017-Oct-12 05:30N 28°36' W 013°07'510.9
2017-Oct-12 05:00N 28°40' W 013°04'510.8
2017-Oct-12 04:30N 28°45' W 013°00'611.1
2017-Oct-12 04:00N 28°49' W 012°57'611.9
2017-Oct-12 03:30N 28°54' W 012°53'611.6
2017-Oct-12 02:59N 28°59' W 012°49'611.7
2017-Oct-12 02:30N 29°04' W 012°45'611.7
2017-Oct-12 02:00N 29°09' W 012°41'611.6
2017-Oct-12 01:30N 29°13' W 012°38'611.7
2017-Oct-12 01:00N 29°18' W 012°34'612.1
2017-Oct-12 00:30N 29°23' W 012°30'612.0
2017-Oct-11 23:59N 29°29' W 012°26'4312.1
2017-Oct-11 20:24N 30°04' W 011°58'511.9
2017-Oct-11 20:00N 30°08' W 011°55'611.8
2017-Oct-11 19:30N 30°13' W 011°51'611.7
2017-Oct-11 19:00N 30°18' W 011°47'611.6
2017-Oct-11 18:30N 30°23' W 011°43'1111.7
2017-Oct-11 17:34N 30°32' W 011°36'111.6
2017-Oct-11 17:30N 30°32' W 011°35'611.8
2017-Oct-11 17:00N 30°37' W 011°32'25711.8
2017-Oct-10 19:16N 33°57' W 008°21'312.2
2017-Oct-10 19:00N 33°60' W 008°19'812.1
2017-Oct-10 18:21N 34°06' W 008°13'412.1
2017-Oct-10 18:00N 34°09' W 008°09'611.9
2017-Oct-10 17:28N 34°13' W 008°04'511.8
2017-Oct-10 17:01N 34°17' W 007°59'611.8
2017-Oct-10 16:28N 34°22' W 007°55'611.7
2017-Oct-10 16:00N 34°26' W 007°50'611.6
2017-Oct-10 15:30N 34°31' W 007°46'1012.0
2017-Oct-10 14:42N 34°38' W 007°38'811.9
2017-Oct-10 14:00N 34°44' W 007°31'612.0
2017-Oct-10 13:29N 34°49' W 007°26'612.3
2017-Oct-10 12:59N 34°53' W 007°21'612.2
2017-Oct-10 12:29N 34°58' W 007°17'612.1
2017-Oct-10 12:00N 35°03' W 007°13'712.1
2017-Oct-10 11:27N 35°08' W 007°07'712.0
2017-Oct-10 10:51N 35°13' W 007°01'512.1
2017-Oct-10 10:25N 35°17' W 006°57'912.0
2017-Oct-10 09:40N 35°24' W 006°50'212.0
2017-Oct-10 09:30N 35°26' W 006°48'612.1
2017-Oct-10 09:00N 35°30' W 006°43'611.7
2017-Oct-10 08:31N 35°35' W 006°39'611.5
2017-Oct-10 07:58N 35°39' W 006°34'612.3
2017-Oct-10 07:30N 35°42' W 006°28'612.4
2017-Oct-10 07:01N 35°44' W 006°21'279 8.6
2017-Oct-08 22:42N 37°20' W 000°55'211.5
2017-Oct-08 22:30N 37°21' W 000°52'1111.4
2017-Oct-08 21:33N 37°29' W 000°42'111.3
2017-Oct-08 21:29N 37°29' W 000°42'511.3
2017-Oct-08 21:01N 37°33' W 000°37'611.2
2017-Oct-08 20:31N 37°37' W 000°32'611.3
2017-Oct-08 20:00N 37°41' W 000°28'711.3
2017-Oct-08 19:25N 37°47' W 000°23'911.3
2017-Oct-08 18:36N 37°55' W 000°17'111.2
2017-Oct-08 18:30N 37°56' W 000°16'511.2
2017-Oct-08 18:01N 38°00' W 000°12'611.3
2017-Oct-08 17:30N 38°05' W 000°08'611.3
2017-Oct-08 16:57N 38°10' W 000°04'511.2
2017-Oct-08 16:30N 38°14' W 000°00'  
2017-Oct-05 09:12N 43°01' E 003°03'0 0.0
2017-Oct-05 08:59N 43°01' E 003°03'2 3.5
2017-Oct-05 08:30N 43°01' E 003°05'4 7.0
2017-Oct-05 08:00N 42°59' E 003°10'611.5
2017-Oct-05 07:30N 42°58' E 003°18'510.8
2017-Oct-05 07:01N 42°56' E 003°24'0 0.6
2017-Oct-05 06:30N 42°56' E 003°24'0 0.4
2017-Oct-05 06:00N 42°56' E 003°24'1 0.9
2017-Oct-05 05:27N 42°57' E 003°24'3 5.8
2017-Oct-05 05:01N 42°54' E 003°23'610.5
2017-Oct-05 04:26N 42°48' E 003°22'611.2
2017-Oct-05 03:52N 42°42' E 003°22'410.9
2017-Oct-05 03:30N 42°38' E 003°22'4910.9
2017-Oct-04 23:01N 41°51' E 003°37'410.7
2017-Oct-04 22:39N 41°47' E 003°38'2411.7
2017-Oct-04 20:34N 41°24' E 003°49'411.7
2017-Oct-04 20:13N 41°20' E 003°50'  
Track history (hours):
 
Tides and Currents Weather Stations Pressure Air Temp Water Temp Dewpoint Dewpoint Depression Visibility Wind Speed Wind Dir Waves Ship Positions

Prince Basel

Last reported at 2017-Oct-12 16:47 UTC. Time now 2017-Oct-20 18:28 UTC.
Position N 26°54' W 014°33'.
Warning: this ship's position is 8 days out of date.

Length 101 m; draft 6.8 m.

Type: Cargo ship. MMSI: 374421000.

Date/timePositionNaut miles runAvg speedWind from/ knotsBaromVisibWave heightAir tempDewpointWater temp
2017-Oct-12 16:47N 26°54' W 014°33'311.5
2017-Oct-12 16:31N 26°56' W 014°30'611.4
2017-Oct-12 16:01N 27°01' W 014°26'611.3
2017-Oct-12 15:30N 27°05' W 014°22'611.1
2017-Oct-12 15:01N 27°09' W 014°18'611.2
2017-Oct-12 14:30N 27°14' W 014°14'611.2
2017-Oct-12 14:01N 27°18' W 014°10'611.1
2017-Oct-12 13:30N 27°22' W 014°06'611.1
2017-Oct-12 13:00N 27°27' W 014°02'611.2
2017-Oct-12 12:30N 27°31' W 013°59'611.3
2017-Oct-12 12:00N 27°36' W 013°55'611.2
2017-Oct-12 11:30N 27°41' W 013°52'611.3
2017-Oct-12 11:00N 27°46' W 013°49'611.4
2017-Oct-12 10:30N 27°50' W 013°45'611.4
2017-Oct-12 10:00N 27°55' W 013°41'611.4
2017-Oct-12 09:30N 27°59' W 013°37'611.4
2017-Oct-12 09:00N 28°04' W 013°33'611.4
2017-Oct-12 08:30N 28°08' W 013°29'611.4
2017-Oct-12 08:00N 28°13' W 013°25'611.2
2017-Oct-12 07:30N 28°17' W 013°21'611.0
2017-Oct-12 07:00N 28°22' W 013°18'511.1
2017-Oct-12 06:30N 28°26' W 013°14'611.3
2017-Oct-12 06:00N 28°31' W 013°11'611.2
2017-Oct-12 05:30N 28°36' W 013°07'510.9
2017-Oct-12 05:00N 28°40' W 013°04'510.8
2017-Oct-12 04:30N 28°45' W 013°00'611.1
2017-Oct-12 04:00N 28°49' W 012°57'611.9
2017-Oct-12 03:30N 28°54' W 012°53'611.6
2017-Oct-12 02:59N 28°59' W 012°49'611.7
2017-Oct-12 02:30N 29°04' W 012°45'611.7
2017-Oct-12 02:00N 29°09' W 012°41'611.6
2017-Oct-12 01:30N 29°13' W 012°38'611.7
2017-Oct-12 01:00N 29°18' W 012°34'612.1
2017-Oct-12 00:30N 29°23' W 012°30'612.0
2017-Oct-11 23:59N 29°29' W 012°26'4312.1
2017-Oct-11 20:24N 30°04' W 011°58'511.9
2017-Oct-11 20:00N 30°08' W 011°55'611.8
2017-Oct-11 19:30N 30°13' W 011°51'611.7
2017-Oct-11 19:00N 30°18' W 011°47'611.6
2017-Oct-11 18:30N 30°23' W 011°43'1111.7
2017-Oct-11 17:34N 30°32' W 011°36'111.6
2017-Oct-11 17:30N 30°32' W 011°35'611.8
2017-Oct-11 17:00N 30°37' W 011°32'25711.8
2017-Oct-10 19:16N 33°57' W 008°21'312.2
2017-Oct-10 19:00N 33°60' W 008°19'812.1
2017-Oct-10 18:21N 34°06' W 008°13'412.1
2017-Oct-10 18:00N 34°09' W 008°09'611.9
2017-Oct-10 17:28N 34°13' W 008°04'511.8
2017-Oct-10 17:01N 34°17' W 007°59'611.8
2017-Oct-10 16:28N 34°22' W 007°55'611.7
2017-Oct-10 16:00N 34°26' W 007°50'611.6
2017-Oct-10 15:30N 34°31' W 007°46'1012.0
2017-Oct-10 14:42N 34°38' W 007°38'811.9
2017-Oct-10 14:00N 34°44' W 007°31'612.0
2017-Oct-10 13:29N 34°49' W 007°26'612.3
2017-Oct-10 12:59N 34°53' W 007°21'612.2
2017-Oct-10 12:29N 34°58' W 007°17'612.1
2017-Oct-10 12:00N 35°03' W 007°13'712.1
2017-Oct-10 11:27N 35°08' W 007°07'712.0
2017-Oct-10 10:51N 35°13' W 007°01'512.1
2017-Oct-10 10:25N 35°17' W 006°57'912.0
2017-Oct-10 09:40N 35°24' W 006°50'212.0
2017-Oct-10 09:30N 35°26' W 006°48'612.1
2017-Oct-10 09:00N 35°30' W 006°43'611.7
2017-Oct-10 08:31N 35°35' W 006°39'611.5
2017-Oct-10 07:58N 35°39' W 006°34'612.3
2017-Oct-10 07:30N 35°42' W 006°28'612.4
2017-Oct-10 07:01N 35°44' W 006°21'279 8.6
2017-Oct-08 22:42N 37°20' W 000°55'211.5
2017-Oct-08 22:30N 37°21' W 000°52'1111.4
2017-Oct-08 21:33N 37°29' W 000°42'111.3
2017-Oct-08 21:29N 37°29' W 000°42'511.3
2017-Oct-08 21:01N 37°33' W 000°37'611.2
2017-Oct-08 20:31N 37°37' W 000°32'611.3
2017-Oct-08 20:00N 37°41' W 000°28'711.3
2017-Oct-08 19:25N 37°47' W 000°23'911.3
2017-Oct-08 18:36N 37°55' W 000°17'111.2
2017-Oct-08 18:30N 37°56' W 000°16'511.2
2017-Oct-08 18:01N 38°00' W 000°12'611.3
2017-Oct-08 17:30N 38°05' W 000°08'611.3
2017-Oct-08 16:57N 38°10' W 000°04'511.2
2017-Oct-08 16:30N 38°14' W 000°00'  
2017-Oct-05 09:12N 43°01' E 003°03'0 0.0
2017-Oct-05 08:59N 43°01' E 003°03'2 3.5
2017-Oct-05 08:30N 43°01' E 003°05'4 7.0
2017-Oct-05 08:00N 42°59' E 003°10'611.5
2017-Oct-05 07:30N 42°58' E 003°18'510.8
2017-Oct-05 07:01N 42°56' E 003°24'0 0.6
2017-Oct-05 06:30N 42°56' E 003°24'0 0.4
2017-Oct-05 06:00N 42°56' E 003°24'1 0.9
2017-Oct-05 05:27N 42°57' E 003°24'3 5.8
2017-Oct-05 05:01N 42°54' E 003°23'610.5
2017-Oct-05 04:26N 42°48' E 003°22'611.2
2017-Oct-05 03:52N 42°42' E 003°22'410.9
2017-Oct-05 03:30N 42°38' E 003°22'4910.9
2017-Oct-04 23:01N 41°51' E 003°37'410.7
2017-Oct-04 22:39N 41°47' E 003°38'2411.7
2017-Oct-04 20:34N 41°24' E 003°49'411.7
2017-Oct-04 20:13N 41°20' E 003°50'  

Dump ship's entire track history